createdAt,value
2018-04-17T00:00:53.900Z,99.90
2018-04-17T00:03:22.290Z,99.90
2018-04-17T00:05:50.838Z,99.90
2018-04-17T00:08:19.188Z,99.90
2018-04-17T00:10:47.573Z,99.90
2018-04-17T00:13:16.023Z,99.90
2018-04-17T00:15:44.387Z,99.90
2018-04-17T00:18:12.739Z,99.90
2018-04-17T00:20:41.867Z,99.90
2018-04-17T00:23:10.222Z,99.90
2018-04-17T00:25:39.334Z,99.90
2018-04-17T00:28:07.725Z,99.90
2018-04-17T00:30:36.081Z,99.90
2018-04-17T00:33:05.201Z,99.90
2018-04-17T00:35:33.627Z,99.90
2018-04-17T00:38:01.985Z,99.90
2018-04-17T00:40:30.326Z,99.90
2018-04-17T00:42:58.677Z,99.90
2018-04-17T00:45:27.870Z,99.90
2018-04-17T00:47:56.240Z,99.90
2018-04-17T00:50:24.586Z,99.90
2018-04-17T00:52:52.939Z,99.90
2018-04-17T00:55:21.289Z,99.90
2018-04-17T00:57:49.649Z,99.90
2018-04-17T01:00:18.003Z,99.90
2018-04-17T01:02:46.379Z,99.90
2018-04-17T01:05:14.751Z,99.90
2018-04-17T01:07:43.110Z,99.90
2018-04-17T01:10:11.481Z,99.90
2018-04-17T01:12:40.580Z,99.90
2018-04-17T01:15:08.994Z,99.90
2018-04-17T01:17:37.338Z,99.90
2018-04-17T01:20:05.861Z,99.90
2018-04-17T01:22:34.202Z,99.90
2018-04-17T01:25:02.689Z,99.90
2018-04-17T01:27:31.087Z,99.90
2018-04-17T01:29:59.442Z,99.90
2018-04-17T01:32:27.798Z,99.90
2018-04-17T01:34:56.179Z,99.90
2018-04-17T01:37:25.916Z,99.90
2018-04-17T01:39:54.279Z,99.90
2018-04-17T01:42:23.513Z,99.90
2018-04-17T01:44:51.864Z,99.90
2018-04-17T01:47:20.988Z,99.90
2018-04-17T01:49:49.354Z,99.90
2018-04-17T01:52:17.751Z,99.90
2018-04-17T01:54:46.085Z,99.90
2018-04-17T01:57:15.920Z,99.90
2018-04-17T01:59:44.279Z,99.90
2018-04-17T02:02:13.406Z,99.90
2018-04-17T02:04:41.763Z,99.90
2018-04-17T02:07:10.888Z,99.90
2018-04-17T02:09:39.330Z,99.90
2018-04-17T02:12:08.480Z,99.90
2018-04-17T02:14:36.845Z,99.90
2018-04-17T02:17:05.235Z,99.90
2018-04-17T02:19:33.586Z,99.90
2018-04-17T02:22:02.004Z,99.90
2018-04-17T02:24:30.413Z,99.90
2018-04-17T02:26:58.835Z,99.90
2018-04-17T02:29:27.204Z,99.90
2018-04-17T02:31:55.556Z,99.90
2018-04-17T02:34:23.998Z,99.90
2018-04-17T02:36:52.351Z,99.90
2018-04-17T02:39:20.710Z,99.90
2018-04-17T02:41:49.106Z,99.90
2018-04-17T02:44:17.513Z,99.90
2018-04-17T02:46:45.993Z,99.90
2018-04-17T02:49:14.346Z,99.90
2018-04-17T02:51:43.479Z,99.90
2018-04-17T02:54:11.825Z,99.90
2018-04-17T02:56:40.236Z,99.90
2018-04-17T02:59:08.571Z,99.90
2018-04-17T03:01:36.925Z,99.90
2018-04-17T03:04:05.373Z,99.90
2018-04-17T03:06:33.716Z,99.90
2018-04-17T03:09:02.199Z,99.90
2018-04-17T03:11:30.594Z,99.90
2018-04-17T03:13:58.987Z,99.90
2018-04-17T03:16:28.430Z,99.90
2018-04-17T03:18:56.799Z,99.90
2018-04-17T03:21:25.302Z,99.90
2018-04-17T03:23:54.460Z,99.90
2018-04-17T03:26:22.876Z,99.90
2018-04-17T03:28:51.239Z,99.90
2018-04-17T03:31:19.704Z,99.90
2018-04-17T03:33:48.957Z,99.90
2018-04-17T03:36:17.371Z,99.90
2018-04-17T03:38:45.719Z,99.90
2018-04-17T03:41:14.104Z,99.90
2018-04-17T03:43:42.457Z,99.90
2018-04-17T03:46:11.591Z,99.90
2018-04-17T03:48:39.942Z,99.90
2018-04-17T03:51:08.405Z,99.90
2018-04-17T03:53:37.521Z,99.90
2018-04-17T03:56:06.033Z,99.90
2018-04-17T03:58:34.385Z,99.90
2018-04-17T04:01:02.743Z,99.90
2018-04-17T04:03:31.877Z,99.90
2018-04-17T04:06:00.233Z,99.90
2018-04-17T04:08:29.429Z,99.90
2018-04-17T04:10:57.836Z,99.90
2018-04-17T04:13:26.241Z,99.90
2018-04-17T04:15:54.598Z,99.90
2018-04-17T04:18:34.818Z,99.90
2018-04-17T04:21:15.911Z,99.90
2018-04-17T04:23:56.925Z,99.90
2018-04-17T04:26:31.189Z,99.90
2018-04-17T04:29:00.329Z,99.90
2018-04-17T04:31:28.824Z,99.90
2018-04-17T04:33:57.163Z,99.90
2018-04-17T04:36:25.578Z,99.90
2018-04-17T04:38:53.922Z,99.90
2018-04-17T04:41:22.339Z,99.90
2018-04-17T04:43:50.683Z,99.90
2018-04-17T04:46:19.061Z,99.90
2018-04-17T04:48:47.471Z,99.90
2018-04-17T04:51:15.854Z,99.90
2018-04-17T04:53:44.202Z,99.90
2018-04-17T04:56:12.587Z,99.90
2018-04-17T04:58:40.932Z,99.90
2018-04-17T05:01:09.987Z,99.90
2018-04-17T05:03:38.364Z,99.90
2018-04-17T05:06:06.742Z,99.90
2018-04-17T05:08:35.124Z,99.90
2018-04-17T05:11:03.553Z,99.90
2018-04-17T05:13:32.679Z,99.90
2018-04-17T05:16:01.066Z,99.90
2018-04-17T05:18:29.551Z,99.90
2018-04-17T05:20:57.852Z,99.90
2018-04-17T05:23:26.227Z,99.90
2018-04-17T05:25:54.683Z,99.90
2018-04-17T05:28:23.022Z,99.90
2018-04-17T05:30:52.181Z,99.90
2018-04-17T05:33:21.384Z,99.90
2018-04-17T05:35:50.070Z,99.90
2018-04-17T05:38:18.460Z,99.90
2018-04-17T05:40:47.102Z,99.90
2018-04-17T05:43:15.447Z,99.90
2018-04-17T05:45:44.684Z,99.90
2018-04-17T05:48:13.032Z,99.90
2018-04-17T05:50:42.167Z,99.90
2018-04-17T05:53:10.586Z,99.90
2018-04-17T05:55:38.937Z,99.90
2018-04-17T05:58:07.319Z,99.90
2018-04-17T06:00:35.674Z,99.90
2018-04-17T06:03:04.222Z,99.90
2018-04-17T06:05:32.566Z,99.90
2018-04-17T06:08:00.940Z,99.90
2018-04-17T06:10:29.282Z,99.90
2018-04-17T06:12:57.693Z,99.90
2018-04-17T06:15:26.065Z,99.90
2018-04-17T06:17:54.727Z,99.90
2018-04-17T06:20:23.074Z,99.90
2018-04-17T06:22:51.516Z,99.90
2018-04-17T06:25:19.897Z,99.90
2018-04-17T06:27:49.086Z,99.90
2018-04-17T06:30:17.583Z,99.90
2018-04-17T06:32:45.926Z,99.90
2018-04-17T06:35:14.292Z,99.90
2018-04-17T06:37:43.551Z,99.90
2018-04-17T06:40:11.966Z,99.90
2018-04-17T06:42:40.299Z,99.90
2018-04-17T06:45:08.782Z,99.90
2018-04-17T06:47:37.178Z,99.90
2018-04-17T06:50:05.489Z,99.90
2018-04-17T06:52:33.940Z,99.90
2018-04-17T06:55:02.383Z,99.90
2018-04-17T06:57:30.778Z,99.90
2018-04-17T06:59:59.105Z,99.90
2018-04-17T07:02:27.457Z,99.90
2018-04-17T07:04:55.810Z,99.90
2018-04-17T07:07:24.380Z,99.90
2018-04-17T07:09:52.814Z,99.90
2018-04-17T07:12:21.199Z,99.90
2018-04-17T07:14:49.525Z,99.90
2018-04-17T07:17:17.899Z,99.90
2018-04-17T07:19:46.363Z,99.90
2018-04-17T07:22:14.927Z,99.90
2018-04-17T07:24:43.250Z,99.90
2018-04-17T07:27:11.644Z,99.90
2018-04-17T07:29:40.041Z,99.90
2018-04-17T07:32:08.382Z,99.90
2018-04-17T07:34:36.745Z,99.90
2018-04-17T07:37:05.110Z,99.90
2018-04-17T07:39:34.239Z,99.90
2018-04-17T07:42:02.642Z,99.90
2018-04-17T07:44:31.007Z,99.90
2018-04-17T07:47:11.479Z,99.90
2018-04-17T07:49:39.857Z,99.90
2018-04-17T07:52:08.257Z,99.90
2018-04-17T07:54:36.700Z,99.90
2018-04-17T07:57:05.108Z,99.90
2018-04-17T07:59:34.341Z,99.90
2018-04-17T08:02:02.759Z,99.90
2018-04-17T08:04:31.110Z,99.90
2018-04-17T08:07:00.259Z,99.90
2018-04-17T08:09:28.640Z,99.90
2018-04-17T08:11:57.170Z,99.90
2018-04-17T08:14:25.478Z,99.90
2018-04-17T08:16:53.925Z,99.90
2018-04-17T08:19:23.163Z,99.90
2018-04-17T08:21:51.526Z,99.90
2018-04-17T08:24:19.968Z,98.90
2018-04-17T08:26:48.304Z,98.80
2018-04-17T08:29:16.675Z,98.50
2018-04-17T08:31:45.027Z,98.20
2018-04-17T08:34:13.386Z,97.60
2018-04-17T08:36:41.818Z,97.10
2018-04-17T08:39:10.315Z,96.70
2018-04-17T08:41:38.676Z,96.80
2018-04-17T08:44:07.034Z,96.40
2018-04-17T08:46:36.290Z,95.80
2018-04-17T08:49:04.640Z,96.60
2018-04-17T08:51:32.999Z,95.70
2018-04-17T08:54:01.407Z,95.00
2018-04-17T08:56:29.843Z,94.40
2018-04-17T08:58:59.669Z,95.20
2018-04-17T09:01:28.068Z,95.20
2018-04-17T09:03:56.439Z,94.50
2018-04-17T09:06:25.032Z,94.10
2018-04-17T09:08:53.383Z,93.70
2018-04-17T09:11:21.789Z,93.30
2018-04-17T09:13:50.152Z,93.90
2018-04-17T09:16:18.499Z,94.00
2018-04-17T09:18:46.929Z,94.00
2018-04-17T09:21:16.139Z,94.30
2018-04-17T09:23:44.491Z,94.20
2018-04-17T09:26:12.890Z,93.40
2018-04-17T09:28:41.575Z,91.90
2018-04-17T09:31:09.969Z,91.20
2018-04-17T09:33:38.338Z,91.60
2018-04-17T09:36:06.728Z,85.40
2018-04-17T09:38:35.095Z,85.20
2018-04-17T09:41:03.485Z,85.50
2018-04-17T09:43:31.849Z,84.60
2018-04-17T09:46:00.224Z,83.10
2018-04-17T09:48:28.591Z,83.50
2018-04-17T09:50:57.010Z,84.10
2018-04-17T09:53:25.341Z,83.90
2018-04-17T09:55:53.739Z,83.00
2018-04-17T09:58:22.089Z,80.30
2018-04-17T10:00:56.829Z,78.90
2018-04-17T10:03:25.187Z,78.80
2018-04-17T10:05:54.343Z,78.10
2018-04-17T10:08:22.701Z,78.10
2018-04-17T10:10:51.098Z,78.40
2018-04-17T10:13:19.451Z,76.80
2018-04-17T10:15:47.813Z,79.10
2018-04-17T10:18:16.950Z,80.80
2018-04-17T10:20:45.314Z,80.70
2018-04-17T10:23:13.683Z,82.80
2018-04-17T10:25:42.246Z,82.30
2018-04-17T10:28:10.679Z,79.30
2018-04-17T10:30:39.041Z,77.90
2018-04-17T10:33:07.413Z,78.30
2018-04-17T10:35:35.884Z,77.30
2018-04-17T10:38:04.499Z,74.20
2018-04-17T10:40:32.846Z,71.20
2018-04-17T10:43:01.352Z,68.30
2018-04-17T10:45:29.765Z,63.90
2018-04-17T10:47:58.128Z,64.00
2018-04-17T10:50:26.667Z,61.00
2018-04-17T10:52:55.764Z,59.90
2018-04-17T10:55:24.125Z,59.90
2018-04-17T10:57:53.315Z,66.00
2018-04-17T11:00:22.477Z,64.50
2018-04-17T11:02:50.852Z,63.80
2018-04-17T11:05:20.289Z,65.80
2018-04-17T11:07:48.609Z,65.70
2018-04-17T11:10:16.995Z,64.90
2018-04-17T11:12:45.367Z,64.20
2018-04-17T11:15:13.746Z,66.40
2018-04-17T11:17:42.174Z,66.40
2018-04-17T11:20:10.518Z,68.40
2018-04-17T11:22:39.006Z,69.40
2018-04-17T11:25:07.363Z,67.80
2018-04-17T11:27:35.747Z,66.50
2018-04-17T11:30:04.160Z,68.70
2018-04-17T11:32:32.638Z,66.60
2018-04-17T11:35:00.970Z,65.00
2018-04-17T11:37:30.216Z,58.70
2018-04-17T11:39:58.812Z,58.70
2018-04-17T11:42:27.170Z,58.10
2018-04-17T11:44:55.525Z,59.10
2018-04-17T11:47:23.939Z,59.00
2018-04-17T11:49:52.346Z,58.20
2018-04-17T11:52:20.733Z,51.40
2018-04-17T11:54:49.100Z,52.60
2018-04-17T11:57:17.518Z,52.10
2018-04-17T11:59:46.664Z,54.60
2018-04-17T12:02:15.140Z,54.60
2018-04-17T12:04:43.500Z,54.40
2018-04-17T12:07:12.000Z,54.50
2018-04-17T12:09:40.353Z,51.60
2018-04-17T12:12:08.867Z,49.30
2018-04-17T12:14:37.228Z,51.30
2018-04-17T12:17:05.599Z,50.80
2018-04-17T12:19:33.974Z,49.40
2018-04-17T12:22:02.352Z,49.00
2018-04-17T12:24:30.828Z,49.00
2018-04-17T12:26:59.214Z,47.80
2018-04-17T12:29:27.585Z,47.30
2018-04-17T12:31:55.949Z,45.80
2018-04-17T12:34:24.303Z,43.70
2018-04-17T12:36:53.654Z,45.10
2018-04-17T12:39:22.134Z,45.00
2018-04-17T12:41:50.477Z,44.20
2018-04-17T12:44:19.611Z,45.10
2018-04-17T12:46:48.892Z,45.50
2018-04-17T12:49:17.300Z,45.50
2018-04-17T12:51:45.640Z,46.30
2018-04-17T12:54:14.768Z,46.00
2018-04-17T12:56:43.125Z,46.00
2018-04-17T12:59:11.523Z,46.70
2018-04-17T13:01:39.903Z,46.30
2018-04-17T13:04:08.286Z,46.80
2018-04-17T13:06:36.671Z,46.60
2018-04-17T13:09:05.768Z,46.30
2018-04-17T13:11:34.169Z,44.00
2018-04-17T13:14:02.543Z,45.00
2018-04-17T13:16:30.899Z,44.80
2018-04-17T13:18:59.283Z,43.70
2018-04-17T13:21:27.664Z,43.90
2018-04-17T13:23:56.243Z,44.30
2018-04-17T13:26:24.817Z,44.60
2018-04-17T13:28:53.245Z,42.40
2018-04-17T13:31:22.220Z,43.10
2018-04-17T13:33:50.571Z,42.90
2018-04-17T13:36:18.974Z,41.00
2018-04-17T13:38:47.331Z,40.50
2018-04-17T13:41:15.838Z,41.70
2018-04-17T13:43:44.476Z,41.50
2018-04-17T13:46:13.621Z,42.10
2018-04-17T13:48:41.979Z,42.00
2018-04-17T13:51:10.371Z,43.90
2018-04-17T13:53:39.002Z,42.30
2018-04-17T13:56:07.340Z,41.80
2018-04-17T13:58:35.688Z,42.40
2018-04-17T14:01:04.203Z,42.70
2018-04-17T14:03:32.595Z,43.40
2018-04-17T14:06:00.947Z,42.60
2018-04-17T14:08:29.322Z,41.40
2018-04-17T14:10:57.707Z,41.90
2018-04-17T14:13:26.181Z,41.50
2018-04-17T14:15:54.570Z,42.20
2018-04-17T14:18:22.983Z,42.00
2018-04-17T14:20:51.419Z,43.80
2018-04-17T14:23:19.814Z,42.30
2018-04-17T14:25:48.153Z,42.10
2018-04-17T14:28:16.666Z,40.90
2018-04-17T14:30:45.002Z,40.60
2018-04-17T14:33:14.185Z,40.60
2018-04-17T14:35:42.537Z,40.80
2018-04-17T14:38:11.006Z,42.10
2018-04-17T14:40:39.987Z,41.30
2018-04-17T14:43:08.438Z,40.80
2018-04-17T14:45:36.735Z,39.60
2018-04-17T14:48:05.104Z,40.30
2018-04-17T14:50:34.235Z,40.70
2018-04-17T14:53:02.609Z,40.60
2018-04-17T14:55:30.983Z,41.60
2018-04-17T14:57:59.511Z,41.50
2018-04-17T15:00:27.852Z,40.90
2018-04-17T15:02:56.241Z,41.80
2018-04-17T15:05:24.643Z,42.10
2018-04-17T15:07:53.008Z,42.00
2018-04-17T15:10:21.382Z,42.70
2018-04-17T15:12:49.732Z,43.30
2018-04-17T15:15:18.200Z,43.30
2018-04-17T15:17:46.608Z,41.80
2018-04-17T15:20:14.993Z,42.10
2018-04-17T15:22:43.366Z,41.70
2018-04-17T15:25:11.773Z,42.30
2018-04-17T15:27:40.249Z,42.40
2018-04-17T15:30:08.577Z,41.40
2018-04-17T15:32:37.707Z,42.40
2018-04-17T15:35:06.175Z,42.50
2018-04-17T15:37:34.524Z,41.30
2018-04-17T15:40:02.956Z,42.20
2018-04-17T15:42:31.427Z,41.40
2018-04-17T15:44:59.919Z,42.40
2018-04-17T15:47:28.460Z,42.30
2018-04-17T15:49:56.820Z,42.70
2018-04-17T15:52:25.174Z,42.10
2018-04-17T15:54:54.254Z,42.10
2018-04-17T15:57:22.598Z,43.00
2018-04-17T15:59:51.717Z,42.80
2018-04-17T16:02:20.089Z,42.70
2018-04-17T16:04:48.492Z,43.10
2018-04-17T16:07:16.833Z,43.20
2018-04-17T16:09:45.254Z,42.30
2018-04-17T16:12:13.600Z,40.70
2018-04-17T16:14:41.997Z,42.40
2018-04-17T16:17:10.347Z,42.50
2018-04-17T16:19:38.733Z,43.00
2018-04-17T16:22:07.103Z,42.70
2018-04-17T16:24:36.223Z,43.70
2018-04-17T16:27:04.639Z,43.60
2018-04-17T16:29:32.945Z,43.60
2018-04-17T16:32:01.280Z,44.30
2018-04-17T16:34:30.266Z,44.90
2018-04-17T16:36:58.851Z,44.00
2018-04-17T16:39:27.204Z,44.20
2018-04-17T16:41:55.619Z,45.10
2018-04-17T16:44:23.958Z,45.40
2018-04-17T16:46:52.327Z,45.90
2018-04-17T16:49:22.539Z,46.60
2018-04-17T16:51:50.860Z,46.60
2018-04-17T16:54:19.376Z,46.90
2018-04-17T16:56:47.722Z,47.50
2018-04-17T16:59:16.067Z,48.40
2018-04-17T17:01:45.213Z,48.90
2018-04-17T17:04:13.744Z,48.90
2018-04-17T17:06:42.857Z,49.60
2018-04-17T17:09:11.279Z,49.40
2018-04-17T17:11:39.649Z,50.30
2018-04-17T17:14:08.040Z,50.90
2018-04-17T17:16:37.272Z,50.90
2018-04-17T17:19:06.440Z,50.50
2018-04-17T17:21:34.805Z,50.40
2018-04-17T17:24:03.195Z,51.60
2018-04-17T17:26:32.271Z,51.60
2018-04-17T17:29:00.654Z,52.60
2018-04-17T17:31:29.109Z,53.40
2018-04-17T17:33:57.670Z,53.90
2018-04-17T17:36:26.074Z,54.70
2018-04-17T17:38:55.192Z,55.70
2018-04-17T17:41:23.537Z,55.70
2018-04-17T17:43:51.890Z,56.30
2018-04-17T17:46:20.269Z,57.60
2018-04-17T17:48:48.613Z,57.50
2018-04-17T17:51:17.043Z,58.30
2018-04-17T17:53:45.580Z,58.60
2018-04-17T17:56:13.980Z,59.20
2018-04-17T17:58:42.465Z,60.00
2018-04-17T18:01:11.606Z,61.80
2018-04-17T18:03:39.964Z,61.80
2018-04-17T18:06:09.076Z,64.80
2018-04-17T18:08:38.544Z,65.80
2018-04-17T18:11:06.918Z,65.80
2018-04-17T18:13:35.253Z,67.40
2018-04-17T18:16:03.662Z,70.10
2018-04-17T18:18:32.008Z,72.40
2018-04-17T18:21:01.225Z,79.10
2018-04-17T18:23:29.609Z,79.10
2018-04-17T18:25:57.993Z,81.10
2018-04-17T18:28:26.347Z,83.00
2018-04-17T18:30:55.343Z,84.30
2018-04-17T18:33:23.703Z,84.90
2018-04-17T18:35:52.863Z,86.20
2018-04-17T18:38:21.233Z,86.20
2018-04-17T18:40:49.574Z,85.60
2018-04-17T18:43:18.137Z,86.80
2018-04-17T18:45:46.511Z,87.40
2018-04-17T18:48:15.668Z,88.30
2018-04-17T18:50:44.093Z,88.20
2018-04-17T18:53:12.459Z,89.90
2018-04-17T18:55:40.911Z,89.80
2018-04-17T18:58:09.241Z,90.10
2018-04-17T19:00:38.396Z,90.50
2018-04-17T19:03:07.252Z,90.40
2018-04-17T19:05:35.658Z,90.50
2018-04-17T19:08:04.028Z,90.80
2018-04-17T19:10:32.393Z,91.00
2018-04-17T19:13:00.753Z,91.40
2018-04-17T19:15:29.106Z,91.80
2018-04-17T19:17:58.332Z,92.40
2018-04-17T19:20:27.042Z,92.30
2018-04-17T19:22:55.482Z,92.90
2018-04-17T19:25:24.660Z,94.00
2018-04-17T19:27:53.835Z,94.50
2018-04-17T19:30:22.220Z,94.20
2018-04-17T19:32:50.714Z,94.40
2018-04-17T19:35:19.259Z,94.60
2018-04-17T19:37:47.609Z,94.80
2018-04-17T19:40:16.082Z,95.10
2018-04-17T19:42:44.462Z,95.00
2018-04-17T19:45:13.570Z,94.70
2018-04-17T19:47:41.979Z,94.70
2018-04-17T19:50:10.450Z,94.60
2018-04-17T19:52:38.951Z,94.50
2018-04-17T19:55:08.246Z,95.00
2018-04-17T19:57:36.610Z,94.70
2018-04-17T20:00:05.190Z,95.00
2018-04-17T20:02:33.652Z,95.20
2018-04-17T20:05:02.107Z,95.40
2018-04-17T20:07:30.491Z,95.70
2018-04-17T20:09:58.852Z,95.60
2018-04-17T20:12:27.233Z,95.90
2018-04-17T20:14:55.657Z,95.90
2018-04-17T20:17:24.765Z,96.10
2018-04-17T20:19:53.420Z,96.10
2018-04-17T20:22:21.757Z,96.40
2018-04-17T20:24:50.134Z,96.70
2018-04-17T20:27:18.503Z,96.90
2018-04-17T20:29:46.857Z,97.00
2018-04-17T20:32:15.343Z,97.20
2018-04-17T20:34:43.787Z,97.40
2018-04-17T20:37:12.147Z,97.40
2018-04-17T20:39:41.258Z,97.50
2018-04-17T20:42:09.927Z,97.70
2018-04-17T20:44:38.308Z,97.90
2018-04-17T20:47:06.626Z,97.90
2018-04-17T20:49:34.972Z,98.10
2018-04-17T20:52:03.376Z,98.60
2018-04-17T20:54:31.731Z,98.50
2018-04-17T20:57:00.308Z,98.50
2018-04-17T20:59:28.653Z,98.90
2018-04-17T21:01:57.031Z,99.30
2018-04-17T21:04:25.396Z,99.40
2018-04-17T21:06:53.770Z,99.70
2018-04-17T21:09:22.144Z,99.80
2018-04-17T21:11:51.264Z,99.90
2018-04-17T21:14:19.673Z,99.90
2018-04-17T21:16:48.116Z,99.90
2018-04-17T21:19:16.460Z,99.90
2018-04-17T21:21:44.907Z,99.90
2018-04-17T21:24:13.336Z,99.90
2018-04-17T21:26:42.505Z,99.90
2018-04-17T21:29:10.971Z,99.90
2018-04-17T21:31:39.326Z,99.90
2018-04-17T21:34:07.678Z,99.90
2018-04-17T21:36:37.140Z,99.90
2018-04-17T21:39:06.311Z,99.90
2018-04-17T21:41:34.698Z,99.90
2018-04-17T21:44:03.050Z,99.90
2018-04-17T21:46:32.239Z,99.90
2018-04-17T21:49:01.343Z,99.90
2018-04-17T21:51:29.718Z,99.90
2018-04-17T21:53:58.949Z,99.90
2018-04-17T21:56:27.347Z,99.90
2018-04-17T21:58:56.103Z,99.90
2018-04-17T22:01:29.485Z,99.90
2018-04-17T22:03:57.860Z,99.90
2018-04-17T22:06:26.281Z,99.90
2018-04-17T22:08:54.695Z,99.90
2018-04-17T22:11:23.054Z,99.90
2018-04-17T22:13:51.809Z,99.90
2018-04-17T22:16:20.920Z,99.90
2018-04-17T22:18:49.469Z,99.90
2018-04-17T22:21:19.011Z,99.90
2018-04-17T22:23:47.618Z,99.90
2018-04-17T22:26:16.490Z,99.90
2018-04-17T22:28:44.852Z,99.90
2018-04-17T22:31:13.305Z,99.90
2018-04-17T22:33:41.652Z,99.90
2018-04-17T22:36:11.030Z,99.90
2018-04-17T22:38:39.471Z,99.90
2018-04-17T22:41:08.594Z,99.90
2018-04-17T22:43:37.074Z,99.90
2018-04-17T22:46:05.640Z,99.90
2018-04-17T22:48:33.996Z,99.90
2018-04-17T22:51:02.977Z,99.90
2018-04-17T22:53:31.874Z,99.90
2018-04-17T22:56:00.558Z,99.90
2018-04-17T22:58:28.902Z,99.90
2018-04-17T23:00:57.275Z,99.90
2018-04-17T23:03:26.265Z,99.90
2018-04-17T23:05:54.882Z,99.90
2018-04-17T23:08:23.633Z,99.90
2018-04-17T23:10:51.968Z,99.90
2018-04-17T23:13:20.875Z,99.90
2018-04-17T23:15:50.345Z,99.90
2018-04-17T23:18:18.694Z,99.90
2018-04-17T23:20:47.380Z,99.90
2018-04-17T23:23:15.859Z,99.90
2018-04-17T23:25:44.227Z,99.90
2018-04-17T23:28:12.654Z,99.90
2018-04-17T23:30:41.047Z,99.90
2018-04-17T23:33:09.481Z,99.90
2018-04-17T23:35:37.887Z,99.90
2018-04-17T23:38:06.280Z,99.90
2018-04-17T23:40:34.631Z,99.90
2018-04-17T23:43:02.995Z,99.90
2018-04-17T23:45:31.409Z,99.90
2018-04-17T23:47:59.782Z,99.90
2018-04-17T23:50:28.148Z,99.90
2018-04-17T23:52:56.562Z,99.90
2018-04-17T23:55:24.907Z,99.90
2018-04-17T23:57:53.360Z,99.90
